Time;durP1;ratioP1;P1;durP2;ratioP2;P2;SDS_P1;SDS_P2;PMS_P1;PMS_P2;Temp;Humidity;BMP_temperature;BMP_pressure;BME280_temperature;BME280_humidity;BME280_pressure;Samples;Min_cycle;Max_cycle;Signal;HPM_P1;HPM_P2
2021/09/15 00:01:41;;;;;;;;;54.75;45.75;;;;;22.25;71.04;100606.34;6004043;23;44738;-92
2021/09/15 00:04:10;;;;;;;;;51.25;43.50;;;;;22.26;71.54;100608.03;5983932;23;44746;-90
2021/09/15 00:06:52;;;;;;;;;53.50;45.00;;;;;22.37;71.13;100612.25;6030277;23;44797;-90
2021/09/15 00:09:34;;;;;;;;;62.00;51.20;;;;;22.40;70.45;100610.06;6106331;23;45410;-92
2021/09/15 00:12:06;;;;;;;;;52.50;44.50;;;;;22.20;70.69;100579.78;6133263;23;44700;-91
2021/09/15 00:14:40;;;;;;;;;51.80;44.00;;;;;22.17;70.52;100585.56;6131714;23;44797;-90
2021/09/15 00:17:25;;;;;;;;;53.50;45.25;;;;;22.43;70.99;100612.38;6128172;23;44765;-91
2021/09/15 00:20:05;;;;;;;;;53.25;45.25;;;;;22.43;70.99;100612.38;6177458;23;45099;-92
2021/09/15 00:22:49;;;;;;;;;49.80;42.80;;;;;22.15;70.39;100565.91;6176407;23;44769;-92
2021/09/15 00:25:58;;;;;;;;;;;;;;;;;;;;;
2021/09/15 00:28:56;;;;;;;;;46.40;39.00;;;;;22.15;70.71;100569.47;6079988;23;44915;-92
2021/09/15 00:32:00;;;;;;;;;57.75;48.00;;;;;22.42;70.46;100612.59;6115063;23;45263;-91
2021/09/15 00:35:07;;;;;;;;;55.00;46.25;;;;;22.44;70.31;100619.53;6115724;23;44763;-91
2021/09/15 00:38:10;;;;;;;;;48.00;41.25;;;;;22.11;70.19;100554.59;6116697;23;44677;-90
2021/09/15 00:41:00;;;;;;;;;66.00;54.00;;;;;22.36;70.46;100597.84;6091866;23;44870;-91
2021/09/15 00:43:36;;;;;;;;;58.25;48.50;;;;;22.09;70.33;100553.06;6115810;23;45449;-90
2021/09/15 00:46:22;;;;;;;;;53.00;45.00;;;;;22.11;70.33;100551.03;6097274;23;44764;-90
2021/09/15 00:48:49;;;;;;;;;49.25;42.25;;;;;22.10;70.69;100546.63;6095245;23;44784;-90
2021/09/15 00:51:40;;;;;;;;;58.67;49.00;;;;;22.05;70.62;100549.84;6068894;23;44826;-90
2021/09/15 00:54:16;;;;;;;;;51.75;43.50;;;;;22.10;70.52;100558.28;6070010;23;45150;-90
2021/09/15 00:57:08;;;;;;;;;49.75;42.75;;;;;22.14;70.78;100575.91;6045592;23;44783;-90
2021/09/15 00:59:44;;;;;;;;;43.25;38.00;;;;;22.25;70.99;100600.91;6093070;23;44729;-91
2021/09/15 01:02:31;;;;;;;;;61.25;49.00;;;;;22.25;70.99;100600.91;6074865;23;44857;-91
2021/09/15 01:05:04;;;;;;;;;44.40;38.20;;;;;22.15;71.46;100582.16;6091717;23;45482;-89
2021/09/15 01:07:57;;;;;;;;;55.40;44.80;;;;;22.03;71.42;100576.22;6070823;23;44619;-90
2021/09/15 01:11:01;;;;;;;;;60.60;50.00;;;;;22.18;71.16;100590.78;6117436;23;44691;-90
2021/09/15 01:13:47;;;;;;;;;53.60;44.80;;;;;22.03;71.01;100579.81;6092350;23;44883;-91
2021/09/15 01:16:54;;;;;;;;;48.25;41.50;;;;;21.84;71.48;100550.41;6071958;23;45108;-91
2021/09/15 01:20:31;;;;;;;;;45.00;38.75;;;;;21.94;71.20;100569.97;6170308;22;44721;-92
2021/09/15 01:23:29;;;;;;;;;;;;;;;;;;;;;
2021/09/15 01:29:26;;;;;;;;;52.00;44.50;;;;;21.85;71.68;100525.00;6060618;23;45107;-91
2021/09/15 01:32:31;;;;;;;;;51.50;43.75;;;;;21.92;71.34;100537.72;6073363;23;44733;-91
2021/09/15 01:35:38;;;;;;;;;42.20;37.40;;;;;22.20;71.84;100576.22;6068379;23;44795;-91
2021/09/15 01:49:00;;;;;;;;;38.25;34.75;;;;;22.18;70.92;100582.66;6226793;22;44949;-91
2021/09/15 01:51:26;;;;;;;;;38.80;35.00;;;;;22.19;71.95;100583.50;6188398;22;46639;-91
2021/09/15 01:54:08;;;;;;;;;59.50;49.25;;;;;22.06;71.26;100570.50;6185273;22;44730;-91
2021/09/15 01:56:41;;;;;;;;;50.75;43.75;;;;;22.14;71.47;100569.63;6143452;23;44773;-91
2021/09/15 01:59:17;;;;;;;;;53.00;45.00;;;;;21.95;71.58;100530.25;6095110;23;44900;-93
2021/09/15 02:01:58;;;;;;;;;53.00;45.00;;;;;22.23;71.11;100578.59;6120649;23;45357;-93
2021/09/15 02:05:00;;;;;;;;;;;;;;;;;;;;;
2021/09/15 02:07:44;;;;;;;;;54.50;44.75;;;;;22.19;70.98;100572.66;6146320;23;68626;-92
2021/09/15 02:10:23;;;;;;;;;59.50;49.25;;;;;21.97;71.17;100547.16;6118573;23;44803;-91
2021/09/15 02:13:32;;;;;;;;;52.00;42.50;;;;;22.08;71.13;100562.19;6121818;23;45091;-90
2021/09/15 02:16:10;;;;;;;;;53.00;44.50;;;;;22.25;71.42;100596.34;6120941;23;44657;-91
2021/09/15 02:18:47;;;;;;;;;49.50;42.75;;;;;22.11;71.40;100580.81;6144367;23;44791;-91
2021/09/15 02:21:27;;;;;;;;;61.25;49.75;;;;;22.05;71.20;100572.38;6123175;23;44802;-92
2021/09/15 02:24:18;;;;;;;;;;;;;;;;;;;;;
2021/09/15 02:27:21;;;;;;;;;;;;;;;;;;;;;
2021/09/15 02:30:17;;;;;;;;;;;;;;;;;;;;;
2021/09/15 02:33:28;;;;;;;;;52.40;44.00;;;;;21.95;71.20;100557.31;6226148;22;69520;-92
2021/09/15 02:36:05;;;;;;;;;50.50;43.00;;;;;22.01;71.28;100573.69;6212628;22;45068;-91
2021/09/15 02:38:45;;;;;;;;;56.00;47.00;;;;;21.95;71.17;100562.72;6210884;22;44738;-91
2021/09/15 02:41:18;;;;;;;;;62.40;51.80;;;;;22.07;71.46;100587.59;6158714;22;44638;-91
2021/09/15 02:43:55;;;;;;;;;51.00;43.50;;;;;22.18;71.67;100611.59;6214113;22;44868;-91
2021/09/15 02:46:31;;;;;;;;;50.75;43.75;;;;;21.95;71.18;100577.09;6211105;22;45105;-91
2021/09/15 02:49:05;;;;;;;;;49.25;41.75;;;;;22.05;71.84;100595.88;6191535;22;44729;-90
2021/09/15 02:51:48;;;;;;;;;51.75;43.50;;;;;22.22;71.75;100629.19;6192503;22;44635;-91
2021/09/15 02:54:31;;;;;;;;;48.25;41.50;;;;;22.22;71.67;100626.47;6192249;22;44767;-90
2021/09/15 02:57:17;;;;;;;;;52.20;44.60;;;;;22.01;71.83;100594.53;6191330;22;45206;-91
2021/09/15 02:59:49;;;;;;;;;41.00;34.00;;;;;22.23;72.00;100627.34;6188955;22;44762;-91
2021/09/15 03:02:30;;;;;;;;;46.25;39.25;;;;;22.20;71.94;100620.41;6188572;22;44736;-91
2021/09/15 03:05:31;;;;;;;;;42.00;36.75;;;;;22.02;71.92;100583.53;6196021;22;44821;-91
2021/09/15 03:08:03;;;;;;;;;58.20;48.20;;;;;21.93;71.97;100576.41;6186354;22;45110;-91
2021/09/15 03:10:29;;;;;;;;;57.00;47.40;;;;;22.14;72.18;100608.41;6162432;22;44718;-92
2021/09/15 03:13:21;;;;;;;;;55.00;46.00;;;;;22.13;72.14;100613.97;6194222;22;44603;-92
2021/09/15 03:16:01;;;;;;;;;52.80;44.80;;;;;21.95;72.56;100585.22;6215096;22;44806;-91
2021/09/15 03:18:54;;;;;;;;;50.75;43.25;;;;;21.81;71.98;100551.56;6165889;22;45200;-91
2021/09/15 03:21:39;;;;;;;;;50.75;43.00;;;;;21.79;72.26;100545.47;6212543;22;44737;-92
2021/09/15 03:24:25;;;;;;;;;57.50;47.75;;;;;21.83;72.25;100554.94;6194349;22;44777;-90
2021/09/15 03:27:19;;;;;;;;;;;;;;;;;;;;;
2021/09/15 03:30:00;;;;;;;;;49.00;41.75;;;;;21.96;72.04;100581.50;6188497;22;74881;-90
2021/09/15 03:32:51;;;;;;;;;56.50;47.00;;;;;21.91;72.28;100573.88;6187163;22;44782;-92
2021/09/15 03:35:57;;;;;;;;;;;;;;;;;;;;;
2021/09/15 03:38:54;;;;;;;;;61.75;51.00;;;;;22.02;72.32;100591.66;6220423;22;44772;-92
2021/09/15 03:41:49;;;;;;;;;66.75;54.00;;;;;21.99;72.29;100602.81;6187079;23;45209;-90
2021/09/15 03:44:16;;;;;;;;;63.20;52.40;;;;;21.82;72.06;100574.91;6155905;23;44583;-91
2021/09/15 03:47:00;;;;;;;;;64.00;53.00;;;;;21.73;71.94;100570.47;6156264;23;44713;-91
2021/09/15 03:49:53;;;;;;;;;56.75;47.75;;;;;21.88;72.21;100600.44;6203986;23;44754;-91
2021/09/15 03:52:24;;;;;;;;;58.75;49.25;;;;;21.92;72.36;100610.78;6178674;23;45056;-93
2021/09/15 03:55:12;;;;;;;;;58.25;48.50;;;;;21.83;72.49;100591.97;6160304;23;44747;-92
2021/09/15 03:58:43;;;;;;;;;;;;;;;;;;;;;
2021/09/15 04:01:21;;;;;;;;;64.00;52.50;;;;;21.84;72.05;100589.09;6179468;23;69674;-92
2021/09/15 04:04:26;;;;;;;;;47.00;40.00;;;;;22.07;72.56;100631.75;6133182;23;44977;-93
2021/09/15 04:07:24;;;;;;;;;62.00;50.50;;;;;21.75;72.42;100572.03;6205138;23;44733;-94
2021/09/15 04:10:56;;;;;;;;;;;;;;;;;;;;;
2021/09/15 04:13:17;;;;;;;;;149.67;149.67;;;;;21.88;72.43;100595.03;6190604;23;44887;-92
2021/09/15 04:15:57;;;;;;;;;40.60;35.40;;;;;21.76;72.50;100571.03;6183756;22;45071;-91
2021/09/15 04:18:31;;;;;;;;;49.50;42.00;;;;;21.89;72.39;100594.00;6208284;23;44770;-91
2021/09/15 04:21:22;;;;;;;;;59.75;48.00;;;;;21.75;72.10;100574.72;6208370;22;44746;-92
2021/09/15 04:24:42;;;;;;;;;59.80;49.60;;;;;22.03;72.32;100620.41;6205903;23;44790;-92
2021/09/15 04:33:23;;;;;;;;;50.50;42.75;;;;;21.89;72.13;100591.31;6206919;23;44671;-90
2021/09/15 04:36:00;;;;;;;;;60.50;50.00;;;;;21.82;72.22;100583.03;6207462;22;44892;-91
2021/09/15 04:38:32;;;;;;;;;56.00;47.20;;;;;22.07;72.50;100620.94;6187012;22;45330;-91
2021/09/15 04:41:12;;;;;;;;;51.75;42.75;;;;;21.74;71.95;100573.03;6160166;23;44571;-91
2021/09/15 04:49:33;;;;;;;;;61.00;50.40;;;;;21.82;72.16;100582.19;6179713;22;46373;-91
2021/09/15 04:52:16;;;;;;;;;;;;;;;;;;;;;
2021/09/15 04:54:55;;;;;;;;;50.50;42.75;;;;;21.86;71.94;100592.50;6143409;23;68246;-91
2021/09/15 04:57:48;;;;;;;;;;;;;;;;;;;;;
2021/09/15 05:00:34;;;;;;;;;57.75;48.00;;;;;22.04;71.82;100615.84;6103593;23;74926;-92
2021/09/15 05:03:27;;;;;;;;;66.60;54.60;;;;;21.98;72.57;100616.50;6125421;23;44569;-91
2021/09/15 05:05:55;;;;;;;;;63.50;52.50;;;;;22.00;72.23;100628.84;6126643;23;44578;-91
2021/09/15 05:08:39;;;;;;;;;59.00;49.75;;;;;21.73;71.77;100584.00;6088189;23;44894;-91
2021/09/15 05:11:09;;;;;;;;;61.50;50.75;;;;;22.00;71.97;100623.44;6104133;23;45007;-91
2021/09/15 05:13:48;;;;;;;;;52.40;44.40;;;;;21.71;72.35;100580.63;6096859;23;44664;-90
2021/09/15 05:19:43;;;;;;;;;54.25;46.25;;;;;22.01;71.86;100627.84;6059262;23;44755;-91
2021/09/15 05:22:22;;;;;;;;;54.20;45.20;;;;;21.98;72.21;100621.94;6038032;23;45253;-90
2021/09/15 05:29:47;;;;;;;;;;;;;;;;;;;;;
2021/09/15 19:10:15;;;;;;;;;;;;;;;20.19;73.22;101109.28;5207965;22;25836061;-89
2021/09/15 19:12:45;;;;;;;;;;;;;;;20.14;73.64;101104.31;6331437;22;44771;-89
